createdAt,value
2022-09-21T00:02:33.620Z,6.85
2022-09-21T00:05:23.011Z,5.38
2022-09-21T00:08:15.345Z,6.97
2022-09-21T00:11:08.122Z,8.30
2022-09-21T00:13:59.940Z,6.57
2022-09-21T00:16:49.267Z,9.57
2022-09-21T00:19:38.052Z,11.27
2022-09-21T00:22:27.544Z,5.75
2022-09-21T00:25:18.029Z,8.52
2022-09-21T00:28:09.962Z,8.13
2022-09-21T00:31:03.139Z,7.72
2022-09-21T00:33:53.325Z,6.60
2022-09-21T00:36:42.677Z,7.10
2022-09-21T00:39:32.699Z,9.40
2022-09-21T00:42:23.875Z,8.25
2022-09-21T00:45:23.019Z,5.57
2022-09-21T00:48:13.788Z,7.18
2022-09-21T00:51:08.716Z,10.02
2022-09-21T00:54:03.283Z,6.30
2022-09-21T00:56:52.981Z,4.38
2022-09-21T00:59:44.061Z,5.22
2022-09-21T01:02:36.199Z,4.65
2022-09-21T01:05:25.872Z,4.80
2022-09-21T01:08:17.797Z,4.95
2022-09-21T01:11:27.706Z,5.10
2022-09-21T01:14:31.262Z,7.80
2022-09-21T01:17:29.432Z,7.90
2022-09-21T01:20:42.671Z,8.43
2022-09-21T01:23:48.455Z,5.50
2022-09-21T01:26:53.978Z,6.50
2022-09-21T01:29:49.912Z,8.73
2022-09-21T01:32:43.463Z,5.38
2022-09-21T01:35:36.840Z,6.18
2022-09-21T01:38:29.410Z,6.43
2022-09-21T01:41:22.632Z,6.22
2022-09-21T01:44:16.625Z,6.05
2022-09-21T01:47:13.466Z,6.57
2022-09-21T01:50:07.666Z,4.18
2022-09-21T01:53:01.857Z,4.35
2022-09-21T01:55:55.799Z,3.97
2022-09-21T01:58:48.803Z,4.88
2022-09-21T02:01:42.565Z,5.63
2022-09-21T02:07:22.951Z,5.75
2022-09-21T02:10:18.634Z,6.10
2022-09-21T02:13:10.693Z,4.57
2022-09-21T02:16:16.317Z,11.23
2022-09-21T02:19:14.799Z,5.55
2022-09-21T02:22:13.719Z,8.02
2022-09-21T02:25:12.190Z,7.07
2022-09-21T02:28:09.750Z,6.40
2022-09-21T02:31:08.284Z,4.63
2022-09-21T02:34:03.562Z,7.43
2022-09-21T02:36:58.255Z,5.35
2022-09-21T02:39:57.239Z,4.78
2022-09-21T02:42:50.899Z,6.18
2022-09-21T02:45:44.672Z,4.32
2022-09-21T02:48:38.582Z,4.50
2022-09-21T02:51:32.940Z,4.53
2022-09-21T02:54:28.071Z,5.85
2022-09-21T02:57:22.961Z,5.25
2022-09-21T03:00:14.692Z,5.93
2022-09-21T03:03:18.112Z,4.10
2022-09-21T03:08:58.350Z,6.38
2022-09-21T03:11:47.994Z,5.75
2022-09-21T03:14:39.882Z,4.15
2022-09-21T03:17:30.586Z,4.20
2022-09-21T03:20:19.933Z,4.38
2022-09-21T03:23:10.360Z,6.03
2022-09-21T03:25:58.805Z,5.50
2022-09-21T03:28:48.115Z,7.63
2022-09-21T03:31:38.943Z,6.35
2022-09-21T03:34:28.327Z,3.45
2022-09-21T03:37:18.320Z,4.20
2022-09-21T03:40:09.440Z,6.35
2022-09-21T03:42:58.737Z,5.40
2022-09-21T03:45:49.199Z,4.65
2022-09-21T03:48:41.152Z,4.43
2022-09-21T03:51:32.115Z,6.55
2022-09-21T03:54:21.698Z,7.57
2022-09-21T03:57:10.997Z,10.02
2022-09-21T03:59:59.849Z,10.55
2022-09-21T04:02:49.572Z,6.25
2022-09-21T04:05:42.147Z,5.63
2022-09-21T04:08:33.886Z,5.70
2022-09-21T04:11:23.554Z,7.90
2022-09-21T04:14:15.100Z,6.35
2022-09-21T04:17:04.971Z,7.63
2022-09-21T04:19:54.966Z,7.00
2022-09-21T04:22:47.392Z,7.15
2022-09-21T04:25:37.984Z,4.32
2022-09-21T04:28:27.967Z,7.50
2022-09-21T04:31:17.501Z,5.57
2022-09-21T04:34:07.031Z,12.90
2022-09-21T04:36:58.762Z,11.65
2022-09-21T04:39:49.667Z,9.52
2022-09-21T04:42:39.992Z,16.05
2022-09-21T04:45:29.822Z,20.73
2022-09-21T04:48:19.380Z,13.40
2022-09-21T04:51:10.210Z,12.80
2022-09-21T04:54:00.434Z,12.65
2022-09-21T04:56:52.262Z,11.23
2022-09-21T04:59:42.528Z,12.20
2022-09-21T05:02:32.608Z,11.70
2022-09-21T05:05:21.670Z,10.38
2022-09-21T05:08:11.757Z,10.43
2022-09-21T05:11:00.333Z,23.83
2022-09-21T05:13:51.216Z,10.23
2022-09-21T05:16:41.106Z,18.35
2022-09-21T05:19:30.665Z,13.10
2022-09-21T05:22:20.863Z,15.20
2022-09-21T05:25:11.564Z,16.70
2022-09-21T05:28:01.444Z,16.80
2022-09-21T05:31:17.194Z,8.60
2022-09-21T05:34:15.038Z,10.73
2022-09-21T05:37:08.797Z,7.63
2022-09-21T05:39:59.015Z,10.30
2022-09-21T05:42:49.159Z,7.60
2022-09-21T05:45:47.539Z,7.63
2022-09-21T05:48:45.923Z,5.03
2022-09-21T05:51:41.958Z,8.80
2022-09-21T05:54:48.638Z,7.93
2022-09-21T05:57:48.871Z,9.80
2022-09-21T06:00:45.544Z,11.20
2022-09-21T06:03:37.331Z,8.63
2022-09-21T06:06:28.020Z,10.23
2022-09-21T06:09:21.701Z,8.40
2022-09-21T06:12:12.633Z,10.23
2022-09-21T06:15:02.392Z,11.32
2022-09-21T06:17:52.481Z,12.65
2022-09-21T06:20:41.660Z,10.70
2022-09-21T06:23:33.470Z,16.63
2022-09-21T06:26:23.351Z,9.45
2022-09-21T06:29:13.591Z,11.80
2022-09-21T06:32:05.052Z,7.70
2022-09-21T06:34:55.566Z,15.23
2022-09-21T06:37:45.742Z,12.40
2022-09-21T06:40:40.401Z,12.98
2022-09-21T06:43:35.161Z,18.25
2022-09-21T06:46:26.966Z,15.82
2022-09-21T06:49:18.684Z,17.77
2022-09-21T06:52:11.165Z,14.85
2022-09-21T06:57:54.484Z,17.70
2022-09-21T07:00:48.783Z,12.35
2022-09-21T07:03:38.958Z,14.45
2022-09-21T07:06:30.935Z,10.48
2022-09-21T07:12:40.592Z,14.10
2022-09-21T07:15:33.031Z,16.00
2022-09-21T07:18:22.688Z,8.80
2022-09-21T07:21:15.338Z,11.00
2022-09-21T07:24:09.584Z,10.82
2022-09-21T07:27:02.291Z,10.52
2022-09-21T07:29:52.547Z,13.10
2022-09-21T07:32:44.730Z,9.07
2022-09-21T07:35:36.608Z,8.05
2022-09-21T07:38:28.879Z,7.00
2022-09-21T07:41:19.555Z,8.43
2022-09-21T07:44:07.998Z,6.85
2022-09-21T07:46:57.398Z,7.35
2022-09-21T07:49:51.151Z,8.05
2022-09-21T07:52:41.033Z,5.63
2022-09-21T07:55:29.999Z,7.47
2022-09-21T07:58:32.570Z,6.25
2022-09-21T08:01:19.972Z,6.60
2022-09-21T08:04:08.040Z,6.00
2022-09-21T08:06:57.716Z,6.25
2022-09-21T08:09:49.842Z,6.65
2022-09-21T08:12:38.800Z,5.18
2022-09-21T08:15:47.550Z,4.65
2022-09-21T08:18:41.062Z,3.92
2022-09-21T08:24:23.424Z,4.30
2022-09-21T08:27:13.205Z,7.22
2022-09-21T08:30:03.718Z,8.82
2022-09-21T08:32:56.453Z,4.20
2022-09-21T08:35:45.930Z,2.60
2022-09-21T08:38:38.375Z,4.18
2022-09-21T08:41:48.079Z,3.05
2022-09-21T08:44:43.646Z,3.22
2022-09-21T08:47:41.454Z,2.90
2022-09-21T08:50:38.759Z,4.75
2022-09-21T08:53:33.591Z,3.97
2022-09-21T08:56:33.038Z,3.22
2022-09-21T08:59:38.475Z,2.08
2022-09-21T09:02:44.109Z,1.58
2022-09-21T09:05:50.172Z,3.17
2022-09-21T09:09:01.580Z,3.38
2022-09-21T09:12:10.701Z,5.47
2022-09-21T09:15:21.044Z,6.82
2022-09-21T09:18:17.662Z,3.55
2022-09-21T09:21:12.660Z,4.47
2022-09-21T09:24:09.093Z,3.97
2022-09-21T09:27:05.448Z,2.00
2022-09-21T09:30:03.619Z,3.38
2022-09-21T09:33:04.374Z,5.50
2022-09-21T09:36:00.120Z,2.38
2022-09-21T09:38:57.262Z,2.38
2022-09-21T09:42:01.748Z,3.67
2022-09-21T09:45:16.416Z,17.83
2022-09-21T09:48:22.581Z,2.13
2022-09-21T09:51:15.561Z,2.88
2022-09-21T09:54:10.222Z,3.58
2022-09-21T09:57:00.525Z,3.63
2022-09-21T09:59:54.649Z,1.90
2022-09-21T10:02:51.351Z,2.65
2022-09-21T10:05:43.379Z,3.17
2022-09-21T10:08:47.535Z,2.65
2022-09-21T10:11:41.680Z,2.70
2022-09-21T10:14:37.335Z,2.90
2022-09-21T10:17:28.638Z,3.00
2022-09-21T10:20:20.777Z,5.13
2022-09-21T10:23:16.468Z,4.30
2022-09-21T10:26:11.144Z,3.45
2022-09-21T10:29:02.997Z,1.52
2022-09-21T10:31:59.569Z,3.25
2022-09-21T10:35:16.068Z,3.85
2022-09-21T10:38:22.363Z,3.30
2022-09-21T10:41:15.595Z,2.78
2022-09-21T10:44:04.645Z,2.97
2022-09-21T10:46:53.511Z,1.85
2022-09-21T10:49:50.853Z,3.28
2022-09-21T10:52:46.017Z,6.88
2022-09-21T10:55:48.163Z,1.40
2022-09-21T10:59:15.776Z,3.72
2022-09-21T11:02:25.409Z,2.92
2022-09-21T11:05:19.405Z,2.25
2022-09-21T11:08:15.857Z,5.07
2022-09-21T11:11:19.877Z,3.75
2022-09-21T11:14:20.096Z,2.13
2022-09-21T11:17:16.040Z,2.35
2022-09-21T11:20:18.326Z,3.40
2022-09-21T11:23:17.396Z,4.15
2022-09-21T11:26:14.759Z,1.42
2022-09-21T11:29:11.193Z,5.95
2022-09-21T11:32:17.571Z,2.95
2022-09-21T11:35:27.508Z,3.30
2022-09-21T11:38:33.617Z,1.40
2022-09-21T11:41:43.124Z,2.40
2022-09-21T11:44:43.653Z,1.63
2022-09-21T11:47:55.871Z,4.25
2022-09-21T11:50:57.018Z,3.42
2022-09-21T11:54:06.658Z,2.25
2022-09-21T11:57:01.869Z,2.88
2022-09-21T12:00:06.703Z,2.35
2022-09-21T12:03:23.821Z,2.38
2022-09-21T12:06:22.922Z,5.03
2022-09-21T12:09:34.730Z,2.28
2022-09-21T12:12:31.461Z,2.45
2022-09-21T12:15:28.226Z,2.15
2022-09-21T12:18:26.791Z,1.15
2022-09-21T12:21:21.699Z,2.80
2022-09-21T12:24:17.294Z,2.50
2022-09-21T12:27:11.811Z,1.42
2022-09-21T12:30:05.476Z,2.65
2022-09-21T12:33:01.203Z,4.97
2022-09-21T12:35:53.764Z,4.10
2022-09-21T12:38:46.389Z,4.73
2022-09-21T12:41:44.256Z,1.88
2022-09-21T12:44:52.786Z,1.58
2022-09-21T12:47:50.448Z,1.63
2022-09-21T12:50:45.451Z,2.42
2022-09-21T12:53:40.091Z,1.33
2022-09-21T12:56:43.760Z,2.75
2022-09-21T12:59:46.232Z,1.27
2022-09-21T13:05:42.073Z,1.38
2022-09-21T13:08:33.811Z,1.73
2022-09-21T13:11:24.289Z,2.15
2022-09-21T13:14:14.488Z,1.25
2022-09-21T13:17:04.073Z,1.80
2022-09-21T13:20:03.991Z,2.38
2022-09-21T13:23:02.681Z,1.77
2022-09-21T13:26:00.952Z,1.20
2022-09-21T13:29:06.706Z,1.30
2022-09-21T13:31:59.453Z,3.08
2022-09-21T13:34:52.322Z,4.50
2022-09-21T13:37:42.810Z,2.67
2022-09-21T13:40:37.112Z,0.88
2022-09-21T13:43:47.035Z,1.33
2022-09-21T13:46:52.911Z,2.28
2022-09-21T13:49:45.655Z,1.48
2022-09-21T13:52:41.377Z,1.25
2022-09-21T13:55:34.648Z,2.97
2022-09-21T13:58:27.809Z,2.10
2022-09-21T14:01:45.290Z,1.90
2022-09-21T14:04:33.784Z,3.40
2022-09-21T14:07:23.563Z,1.10
2022-09-21T14:10:12.961Z,0.80
2022-09-21T14:13:08.160Z,1.42
2022-09-21T14:15:56.891Z,1.65
2022-09-21T14:18:47.392Z,2.35
2022-09-21T14:21:36.366Z,1.85
2022-09-21T14:24:36.997Z,1.60
2022-09-21T14:27:30.468Z,2.92
2022-09-21T14:30:23.017Z,4.97
2022-09-21T14:33:26.007Z,2.20
2022-09-21T14:36:21.724Z,2.03
2022-09-21T14:39:20.605Z,1.77
2022-09-21T14:42:12.955Z,3.17
2022-09-21T14:45:04.392Z,5.10
2022-09-21T14:48:06.449Z,1.90
2022-09-21T14:51:02.062Z,2.65
2022-09-21T14:54:10.269Z,2.72
2022-09-21T14:57:21.871Z,3.22
2022-09-21T15:00:14.822Z,3.10
2022-09-21T15:03:26.873Z,2.45
2022-09-21T15:06:38.421Z,1.58
2022-09-21T15:10:05.168Z,2.92
2022-09-21T15:12:58.946Z,2.47
2022-09-21T15:15:58.998Z,4.57
2022-09-21T15:18:49.666Z,2.60
2022-09-21T15:21:38.830Z,1.80
2022-09-21T15:24:32.298Z,1.48
2022-09-21T15:27:23.619Z,1.98
2022-09-21T15:30:23.020Z,1.48
2022-09-21T15:33:14.751Z,2.20
2022-09-21T15:36:05.761Z,2.70
2022-09-21T15:39:00.155Z,2.33
2022-09-21T15:41:51.054Z,2.05
2022-09-21T15:44:41.562Z,4.72
2022-09-21T15:47:30.417Z,6.05
2022-09-21T15:50:21.523Z,2.30
2022-09-21T15:53:18.268Z,3.08
2022-09-21T15:56:07.335Z,2.17
2022-09-21T15:59:09.400Z,2.97
2022-09-21T16:02:00.821Z,3.05
2022-09-21T16:04:52.248Z,1.60
2022-09-21T16:07:41.920Z,3.53
2022-09-21T16:10:42.062Z,3.50
2022-09-21T16:13:50.051Z,1.23
2022-09-21T16:17:10.252Z,3.13
2022-09-21T16:20:20.592Z,1.92
2022-09-21T16:23:18.819Z,3.58
2022-09-21T16:26:20.353Z,2.22
2022-09-21T16:29:26.925Z,6.00
2022-09-21T16:32:32.985Z,3.35
2022-09-21T16:35:29.726Z,3.35
2022-09-21T16:38:20.852Z,3.97
2022-09-21T16:41:13.602Z,4.53
2022-09-21T16:46:59.706Z,4.70
2022-09-21T16:49:49.700Z,4.00
2022-09-21T16:52:40.841Z,5.53
2022-09-21T16:55:31.116Z,5.63
2022-09-21T16:58:23.331Z,3.78
2022-09-21T17:01:16.212Z,3.47
2022-09-21T17:04:06.176Z,9.63
2022-09-21T17:06:57.607Z,4.68
2022-09-21T17:09:48.915Z,4.60
2022-09-21T17:12:39.113Z,6.10
2022-09-21T17:15:33.427Z,4.63
2022-09-21T17:18:24.008Z,5.25
2022-09-21T17:21:13.866Z,4.18
2022-09-21T17:24:04.638Z,5.10
2022-09-21T17:26:54.700Z,5.72
2022-09-21T17:29:49.059Z,8.65
2022-09-21T17:32:41.210Z,5.68
2022-09-21T17:35:35.362Z,4.00
2022-09-21T17:38:24.863Z,6.60
2022-09-21T17:41:24.962Z,6.72
2022-09-21T17:44:19.571Z,6.63
2022-09-21T17:47:16.831Z,7.63
2022-09-21T17:50:21.773Z,5.85
2022-09-21T17:53:26.197Z,4.75
2022-09-21T17:56:30.107Z,7.18
2022-09-21T17:59:28.573Z,6.72
2022-09-21T18:02:25.178Z,7.07
2022-09-21T18:05:24.690Z,6.47
2022-09-21T18:08:14.316Z,5.00
2022-09-21T18:11:17.390Z,7.25
2022-09-21T18:14:21.371Z,7.82
2022-09-21T18:17:30.532Z,8.65
2022-09-21T18:20:34.866Z,6.07
2022-09-21T18:23:32.822Z,6.70
2022-09-21T18:26:27.530Z,8.65
2022-09-21T18:29:40.663Z,5.90
2022-09-21T18:32:43.042Z,7.55
2022-09-21T18:35:47.263Z,7.90
2022-09-21T18:38:43.303Z,6.65
2022-09-21T18:41:40.725Z,8.77
2022-09-21T18:44:38.526Z,7.28
2022-09-21T18:47:35.292Z,5.95
2022-09-21T18:50:34.046Z,5.57
2022-09-21T18:53:32.641Z,7.97
2022-09-21T18:56:23.774Z,9.70
2022-09-21T18:59:16.598Z,7.47
2022-09-21T19:02:06.855Z,5.80
2022-09-21T19:05:00.478Z,8.68
2022-09-21T19:07:57.743Z,7.93
2022-09-21T19:10:54.050Z,9.68
2022-09-21T19:13:55.310Z,7.53
2022-09-21T19:16:53.142Z,4.90
2022-09-21T19:19:52.800Z,8.35
2022-09-21T19:22:50.549Z,6.65
2022-09-21T19:25:49.678Z,4.30
2022-09-21T19:28:56.223Z,5.38
2022-09-21T19:31:46.132Z,5.95
2022-09-21T19:34:36.024Z,5.38
2022-09-21T19:37:26.614Z,5.25
2022-09-21T19:40:16.834Z,4.97
2022-09-21T19:43:22.146Z,5.43
2022-09-21T19:46:27.416Z,5.68
2022-09-21T19:49:20.562Z,5.95
2022-09-21T19:52:12.459Z,5.57
2022-09-21T19:55:15.450Z,5.97
2022-09-21T19:58:22.950Z,8.50
2022-09-21T20:01:15.693Z,8.15
2022-09-21T20:04:04.049Z,5.85
2022-09-21T20:06:58.467Z,7.07
2022-09-21T20:09:57.849Z,11.57
2022-09-21T20:12:57.823Z,8.82
2022-09-21T20:15:53.411Z,7.38
2022-09-21T20:18:50.529Z,7.07
2022-09-21T20:21:43.290Z,7.47
2022-09-21T20:24:37.262Z,7.65
2022-09-21T20:27:35.531Z,7.18
2022-09-21T20:30:28.490Z,8.75
2022-09-21T20:33:25.072Z,7.83
2022-09-21T20:36:17.405Z,7.20
2022-09-21T20:39:07.164Z,5.75
2022-09-21T20:41:56.126Z,10.40
2022-09-21T20:44:45.895Z,7.55
2022-09-21T20:47:35.566Z,9.95
2022-09-21T20:50:27.329Z,5.32
2022-09-21T20:53:20.083Z,6.95
2022-09-21T20:56:09.657Z,8.93
2022-09-21T20:59:00.121Z,9.10
2022-09-21T21:01:49.047Z,7.38
2022-09-21T21:04:38.657Z,8.63
2022-09-21T21:07:30.485Z,7.47
2022-09-21T21:10:23.750Z,6.80
2022-09-21T21:13:13.831Z,8.77
2022-09-21T21:16:09.574Z,7.07
2022-09-21T21:19:02.835Z,7.45
2022-09-21T21:21:52.192Z,6.18
2022-09-21T21:24:42.456Z,5.75
2022-09-21T21:27:33.914Z,6.13
2022-09-21T21:30:25.443Z,8.77
2022-09-21T21:33:14.703Z,6.47
2022-09-21T21:36:08.743Z,5.90
2022-09-21T21:38:58.711Z,4.60
2022-09-21T21:41:47.836Z,10.38
2022-09-21T21:44:38.936Z,5.43
2022-09-21T21:47:39.455Z,8.25
2022-09-21T21:50:29.995Z,7.22
2022-09-21T21:53:20.197Z,3.90
2022-09-21T21:56:12.419Z,7.68
2022-09-21T21:59:01.604Z,5.70
2022-09-21T22:01:53.566Z,6.10
2022-09-21T22:04:42.986Z,7.82
2022-09-21T22:07:32.052Z,5.63
2022-09-21T22:10:21.807Z,6.07
2022-09-21T22:13:11.080Z,6.20
2022-09-21T22:16:09.027Z,7.80
2022-09-21T22:19:01.293Z,5.43
2022-09-21T22:21:54.180Z,8.38
2022-09-21T22:27:33.004Z,7.53
2022-09-21T22:30:22.347Z,5.13
2022-09-21T22:33:11.756Z,8.95
2022-09-21T22:36:07.655Z,6.45
2022-09-21T22:38:57.983Z,5.75
2022-09-21T22:41:47.656Z,5.13
2022-09-21T22:44:36.978Z,5.28
2022-09-21T22:47:26.921Z,6.28
2022-09-21T22:50:15.850Z,8.75
2022-09-21T22:53:08.006Z,7.55
2022-09-21T22:56:05.759Z,7.43
2022-09-21T22:58:57.267Z,5.90
2022-09-21T23:01:47.067Z,7.22
2022-09-21T23:04:36.100Z,8.07
2022-09-21T23:07:25.165Z,6.53
2022-09-21T23:10:16.709Z,5.65
2022-09-21T23:13:06.986Z,5.68
2022-09-21T23:15:56.298Z,7.10
2022-09-21T23:18:46.568Z,7.38
2022-09-21T23:21:38.126Z,6.40
2022-09-21T23:24:28.393Z,9.82
2022-09-21T23:27:21.729Z,7.15
2022-09-21T23:30:12.591Z,7.32
2022-09-21T23:33:02.212Z,6.60
2022-09-21T23:35:53.245Z,6.07
2022-09-21T23:38:44.146Z,12.63
2022-09-21T23:41:35.951Z,6.88
2022-09-21T23:44:27.266Z,6.15
2022-09-21T23:47:16.143Z,4.90
2022-09-21T23:50:05.805Z,9.18
2022-09-21T23:52:55.685Z,7.60
2022-09-21T23:55:44.846Z,7.47
2022-09-21T23:58:35.615Z,9.27
